Terminal Aerodrome Forecast
Issued by NWS

Home | Current Version | Previous Version | Text Only | Print | Product List | Glossary On
Versions: 1 2 3 4 5 6 7 8 9 10 11 12
000
FTUS42 TJSJ 302339
TAFKPK
TAF
TKPK 302339Z 3100/3124 07009KT P6SM SCT016
     FM311300 07013KT P6SM FEW019
     FM312300 06006KT P6SM VCSH SCT018 SCT040
      AMD NOT SKED 3102/3111=

USA.gov is the U.S. government's official web portal to all federal, state and local government web resources and services.